createdAt,value
2023-03-17T00:00:18.912Z,99.99
2023-03-17T00:01:18.898Z,99.99
2023-03-17T00:02:18.894Z,99.99
2023-03-17T00:03:18.851Z,99.99
2023-03-17T00:04:18.832Z,99.99
2023-03-17T00:05:18.784Z,99.99
2023-03-17T00:06:18.770Z,99.99
2023-03-17T00:07:18.734Z,99.99
2023-03-17T00:08:18.711Z,99.99
2023-03-17T00:09:18.696Z,99.99
2023-03-17T00:10:18.663Z,99.99
2023-03-17T00:11:18.633Z,99.99
2023-03-17T00:12:18.616Z,99.99
2023-03-17T00:13:18.584Z,99.99
2023-03-17T00:14:18.561Z,99.99
2023-03-17T00:15:18.538Z,99.99
2023-03-17T00:16:18.596Z,99.99
2023-03-17T00:17:18.481Z,99.99
2023-03-17T00:18:18.462Z,99.99
2023-03-17T00:19:18.430Z,99.99
2023-03-17T00:20:18.414Z,99.99
2023-03-17T00:21:18.378Z,99.99
2023-03-17T00:22:18.362Z,99.99
2023-03-17T00:23:18.334Z,99.99
2023-03-17T00:24:18.315Z,99.99
2023-03-17T00:25:18.276Z,99.99
2023-03-17T00:26:18.260Z,99.99
2023-03-17T00:27:18.230Z,99.99
2023-03-17T00:28:18.220Z,99.99
2023-03-17T00:29:18.178Z,99.99
2023-03-17T00:30:18.161Z,99.99
2023-03-17T00:31:18.201Z,99.99
2023-03-17T00:32:18.116Z,99.99
2023-03-17T00:33:18.105Z,99.99
2023-03-17T00:34:18.056Z,99.99
2023-03-17T00:35:18.031Z,99.99
2023-03-17T00:36:18.021Z,99.99
2023-03-17T00:37:17.976Z,99.99
2023-03-17T00:38:17.960Z,99.99
2023-03-17T00:39:17.928Z,99.99
2023-03-17T00:40:17.914Z,99.99
2023-03-17T00:41:17.878Z,99.99
2023-03-17T00:42:17.855Z,99.99
2023-03-17T00:43:17.830Z,99.99
2023-03-17T00:44:17.825Z,99.99
2023-03-17T00:45:17.779Z,99.99
2023-03-17T00:46:17.798Z,99.99
2023-03-17T00:47:17.731Z,99.99
2023-03-17T00:48:17.727Z,99.99
2023-03-17T00:49:17.678Z,99.99
2023-03-17T00:50:17.651Z,99.99
2023-03-17T00:51:17.628Z,99.99
2023-03-17T00:52:17.608Z,99.99
2023-03-17T00:53:17.575Z,99.99
2023-03-17T00:54:17.556Z,99.99
2023-03-17T00:55:17.526Z,99.99
2023-03-17T00:56:17.515Z,99.99
2023-03-17T00:57:17.485Z,99.99
2023-03-17T00:58:17.451Z,99.99
2023-03-17T00:59:19.298Z,99.99
2023-03-17T01:00:17.407Z,99.99
2023-03-17T01:01:17.389Z,99.99
2023-03-17T01:02:17.380Z,99.99
2023-03-17T01:03:17.326Z,99.99
2023-03-17T01:04:17.310Z,99.99
2023-03-17T01:05:17.303Z,99.99
2023-03-17T01:06:17.251Z,99.99
2023-03-17T01:07:17.234Z,99.99
2023-03-17T01:08:17.204Z,99.99
2023-03-17T01:09:17.180Z,99.99
2023-03-17T01:10:17.151Z,99.99
2023-03-17T01:11:17.126Z,99.99
2023-03-17T01:12:17.102Z,99.99
2023-03-17T01:13:17.078Z,99.99
2023-03-17T01:14:17.060Z,99.99
2023-03-17T01:15:17.048Z,99.99
2023-03-17T01:16:17.162Z,99.99
2023-03-17T01:17:16.978Z,99.99
2023-03-17T01:18:17.031Z,99.99
2023-03-17T01:19:17.126Z,99.99
2023-03-17T01:20:16.912Z,99.99
2023-03-17T01:21:16.889Z,99.99
2023-03-17T01:22:16.862Z,99.99
2023-03-17T01:23:16.863Z,99.99
2023-03-17T01:24:16.799Z,99.99
2023-03-17T01:25:16.776Z,99.99
2023-03-17T01:26:16.749Z,99.99
2023-03-17T01:27:16.718Z,99.99
2023-03-17T01:28:16.717Z,99.99
2023-03-17T01:29:16.674Z,99.99
2023-03-17T01:30:16.660Z,99.99
2023-03-17T01:31:16.642Z,99.99
2023-03-17T01:32:16.611Z,99.99
2023-03-17T01:33:16.572Z,99.99
2023-03-17T01:34:16.630Z,99.99
2023-03-17T01:35:16.552Z,99.99
2023-03-17T01:36:16.504Z,99.99
2023-03-17T01:37:16.479Z,99.99
2023-03-17T01:38:16.463Z,99.99
2023-03-17T01:39:16.429Z,99.99
2023-03-17T01:40:16.409Z,99.99
2023-03-17T01:41:16.372Z,99.99
2023-03-17T01:42:16.349Z,99.99
2023-03-17T01:43:16.329Z,99.99
2023-03-17T01:44:16.300Z,99.99
2023-03-17T01:45:16.284Z,99.99
2023-03-17T01:46:16.269Z,99.99
2023-03-17T01:47:16.248Z,99.99
2023-03-17T01:48:16.207Z,99.99
2023-03-17T01:49:16.174Z,99.99
2023-03-17T01:50:16.148Z,99.99
2023-03-17T01:51:16.125Z,99.99
2023-03-17T01:52:16.117Z,99.99
2023-03-17T01:53:16.069Z,99.99
2023-03-17T01:54:16.049Z,99.99
2023-03-17T01:55:16.022Z,99.99
2023-03-17T01:56:15.997Z,99.99
2023-03-17T01:57:15.972Z,99.99
2023-03-17T01:58:15.965Z,99.99
2023-03-17T01:59:15.924Z,99.99
2023-03-17T02:00:15.899Z,99.99
2023-03-17T02:01:15.909Z,99.99
2023-03-17T02:02:15.850Z,99.99
2023-03-17T02:03:15.826Z,99.99
2023-03-17T02:04:15.826Z,99.99
2023-03-17T02:05:15.785Z,99.99
2023-03-17T02:06:15.753Z,99.99
2023-03-17T02:07:15.718Z,99.99
2023-03-17T02:08:15.698Z,99.99
2023-03-17T02:09:15.675Z,99.99
2023-03-17T02:10:15.646Z,99.99
2023-03-17T02:11:15.618Z,99.99
2023-03-17T02:12:15.630Z,99.99
2023-03-17T02:13:15.577Z,99.99
2023-03-17T02:14:15.546Z,99.99
2023-03-17T02:15:15.543Z,99.99
2023-03-17T02:16:15.529Z,99.99
2023-03-17T02:17:15.477Z,99.99
2023-03-17T02:18:15.458Z,99.99
2023-03-17T02:19:15.454Z,99.99
2023-03-17T02:20:15.400Z,99.99
2023-03-17T02:21:15.367Z,99.99
2023-03-17T02:22:15.349Z,99.99
2023-03-17T02:23:15.318Z,99.99
2023-03-17T02:24:15.298Z,99.99
2023-03-17T02:25:15.277Z,99.99
2023-03-17T02:26:15.251Z,99.99
2023-03-17T02:27:15.222Z,99.99
2023-03-17T02:28:15.215Z,99.99
2023-03-17T02:29:15.166Z,99.99
2023-03-17T02:30:15.164Z,99.99
2023-03-17T02:31:15.154Z,99.99
2023-03-17T02:32:15.096Z,99.99
2023-03-17T02:33:15.072Z,99.99
2023-03-17T02:34:15.047Z,99.99
2023-03-17T02:35:15.046Z,99.99
2023-03-17T02:36:15.085Z,99.99
2023-03-17T02:37:14.963Z,99.99
2023-03-17T02:38:14.950Z,99.99
2023-03-17T02:39:14.923Z,99.99
2023-03-17T02:40:14.917Z,99.99
2023-03-17T02:41:14.901Z,99.99
2023-03-17T02:42:14.850Z,99.99
2023-03-17T02:43:14.820Z,99.99
2023-03-17T02:44:14.819Z,99.99
2023-03-17T02:45:14.771Z,99.99
2023-03-17T02:46:14.782Z,99.99
2023-03-17T02:47:14.721Z,99.99
2023-03-17T02:48:14.696Z,99.99
2023-03-17T02:49:14.673Z,99.99
2023-03-17T02:50:14.663Z,99.99
2023-03-17T02:51:14.616Z,99.99
2023-03-17T02:52:14.613Z,99.99
2023-03-17T02:53:14.594Z,99.99
2023-03-17T02:54:14.550Z,99.99
2023-03-17T02:55:14.516Z,99.99
2023-03-17T02:56:14.496Z,99.99
2023-03-17T02:57:14.468Z,99.99
2023-03-17T02:58:14.447Z,99.99
2023-03-17T02:59:14.432Z,99.99
2023-03-17T03:00:14.438Z,99.99
2023-03-17T03:01:14.412Z,99.99
2023-03-17T03:02:14.407Z,99.99
2023-03-17T03:03:14.314Z,99.99
2023-03-17T03:04:14.298Z,99.99
2023-03-17T03:05:14.276Z,99.99
2023-03-17T03:06:14.252Z,99.99
2023-03-17T03:07:14.224Z,99.99
2023-03-17T03:08:14.250Z,99.99
2023-03-17T03:09:14.173Z,99.99
2023-03-17T03:10:14.144Z,99.99
2023-03-17T03:11:14.131Z,99.99
2023-03-17T03:12:14.091Z,99.99
2023-03-17T03:13:14.102Z,99.99
2023-03-17T03:14:14.042Z,99.99
2023-03-17T03:15:14.016Z,99.99
2023-03-17T03:16:14.015Z,99.99
2023-03-17T03:17:13.971Z,99.99
2023-03-17T03:18:13.958Z,99.99
2023-03-17T03:19:13.927Z,99.99
2023-03-17T03:20:13.888Z,99.99
2023-03-17T03:21:13.868Z,99.99
2023-03-17T03:22:13.832Z,99.99
2023-03-17T03:23:13.817Z,99.99
2023-03-17T03:24:13.804Z,99.99
2023-03-17T03:25:13.765Z,99.99
2023-03-17T03:26:13.736Z,99.99
2023-03-17T03:27:13.722Z,99.99
2023-03-17T03:28:13.692Z,99.99
2023-03-17T03:29:13.676Z,99.99
2023-03-17T03:30:13.636Z,99.99
2023-03-17T03:31:13.700Z,99.99
2023-03-17T03:32:13.588Z,99.99
2023-03-17T03:33:13.564Z,99.99
2023-03-17T03:34:13.532Z,99.99
2023-03-17T03:35:13.509Z,99.99
2023-03-17T03:36:13.487Z,99.99
2023-03-17T03:37:13.461Z,99.99
2023-03-17T03:38:13.444Z,99.99
2023-03-17T03:39:14.530Z,99.99
2023-03-17T03:40:13.390Z,99.99
2023-03-17T03:41:13.356Z,99.99
2023-03-17T03:42:13.338Z,99.99
2023-03-17T03:43:22.440Z,99.99
2023-03-17T03:44:13.277Z,99.99
2023-03-17T03:45:13.268Z,99.99
2023-03-17T03:46:13.239Z,99.99
2023-03-17T03:47:13.200Z,99.99
2023-03-17T03:48:13.171Z,99.99
2023-03-17T03:49:13.156Z,99.99
2023-03-17T03:50:13.158Z,99.99
2023-03-17T03:51:13.106Z,99.99
2023-03-17T03:52:13.076Z,99.99
2023-03-17T03:53:13.077Z,99.99
2023-03-17T03:54:13.043Z,99.99
2023-03-17T03:55:13.007Z,99.99
2023-03-17T03:56:12.998Z,99.99
2023-03-17T03:57:12.949Z,99.99
2023-03-17T03:58:12.922Z,99.99
2023-03-17T03:59:12.901Z,99.99
2023-03-17T04:00:12.861Z,99.99
2023-03-17T04:01:12.844Z,99.99
2023-03-17T04:02:12.813Z,99.99
2023-03-17T04:03:12.820Z,99.99
2023-03-17T04:04:12.780Z,99.99
2023-03-17T04:05:12.754Z,99.99
2023-03-17T04:06:12.713Z,99.99
2023-03-17T04:07:12.705Z,99.99
2023-03-17T04:08:12.700Z,99.99
2023-03-17T04:09:12.680Z,99.99
2023-03-17T04:10:12.613Z,99.99
2023-03-17T04:11:12.598Z,99.99
2023-03-17T04:12:12.565Z,99.99
2023-03-17T04:13:12.540Z,99.99
2023-03-17T04:14:12.508Z,99.99
2023-03-17T04:15:12.485Z,99.99
2023-03-17T04:16:12.517Z,99.99
2023-03-17T04:17:12.437Z,99.99
2023-03-17T04:18:12.406Z,99.99
2023-03-17T04:19:12.521Z,99.99
2023-03-17T04:20:12.358Z,99.99
2023-03-17T04:21:12.333Z,99.99
2023-03-17T04:22:12.303Z,99.99
2023-03-17T04:23:12.283Z,99.99
2023-03-17T04:24:12.264Z,99.99
2023-03-17T04:25:12.266Z,99.99
2023-03-17T04:26:12.201Z,99.99
2023-03-17T04:27:12.186Z,99.99
2023-03-17T04:28:12.209Z,99.99
2023-03-17T04:29:12.132Z,99.99
2023-03-17T04:30:12.148Z,99.99
2023-03-17T04:31:12.204Z,99.99
2023-03-17T04:32:12.082Z,99.99
2023-03-17T04:33:12.059Z,99.99
2023-03-17T04:34:11.997Z,99.99
2023-03-17T04:35:11.978Z,99.99
2023-03-17T04:36:11.973Z,99.99
2023-03-17T04:37:11.930Z,99.99
2023-03-17T04:38:11.907Z,99.99
2023-03-17T04:39:11.876Z,99.99
2023-03-17T04:40:11.848Z,99.99
2023-03-17T04:41:11.828Z,99.99
2023-03-17T04:42:11.792Z,99.99
2023-03-17T04:43:11.789Z,99.99
2023-03-17T04:44:11.747Z,99.99
2023-03-17T04:45:11.733Z,99.99
2023-03-17T04:46:11.771Z,99.99
2023-03-17T04:47:11.690Z,99.99
2023-03-17T04:48:11.645Z,99.99
2023-03-17T04:49:11.623Z,99.99
2023-03-17T04:50:11.600Z,99.99
2023-03-17T04:51:11.952Z,99.99
2023-03-17T04:52:11.553Z,99.99
2023-03-17T04:53:11.526Z,99.99
2023-03-17T04:54:11.492Z,99.99
2023-03-17T04:55:11.473Z,99.99
2023-03-17T04:56:11.444Z,99.99
2023-03-17T04:57:11.427Z,99.99
2023-03-17T04:58:15.452Z,99.99
2023-03-17T04:59:11.372Z,99.99
2023-03-17T05:00:11.343Z,99.99
2023-03-17T05:01:11.370Z,99.99
2023-03-17T05:02:11.308Z,99.99
2023-03-17T05:03:25.797Z,99.99
2023-03-17T05:04:16.707Z,99.99
2023-03-17T05:05:11.220Z,99.99
2023-03-17T05:06:11.195Z,99.99
2023-03-17T05:07:11.166Z,99.99
2023-03-17T05:08:11.144Z,99.99
2023-03-17T05:09:11.118Z,99.99
2023-03-17T05:10:11.086Z,99.99
2023-03-17T05:11:11.072Z,99.99
2023-03-17T05:12:11.049Z,99.99
2023-03-17T05:13:11.015Z,99.99
2023-03-17T05:14:10.981Z,99.99
2023-03-17T05:15:10.958Z,99.99
2023-03-17T05:16:11.059Z,99.99
2023-03-17T05:17:10.910Z,99.99
2023-03-17T05:18:10.878Z,99.99
2023-03-17T05:19:10.859Z,99.99
2023-03-17T05:20:10.855Z,99.99
2023-03-17T05:21:10.822Z,99.99
2023-03-17T05:22:10.774Z,99.99
2023-03-17T05:23:10.763Z,99.99
2023-03-17T05:24:10.729Z,99.99
2023-03-17T05:25:10.711Z,99.99
2023-03-17T05:26:10.678Z,99.99
2023-03-17T05:27:10.654Z,99.99
2023-03-17T05:28:10.625Z,99.99
2023-03-17T05:29:10.614Z,99.99
2023-03-17T05:30:10.584Z,99.99
2023-03-17T05:31:11.199Z,99.99
2023-03-17T05:32:10.532Z,99.99
2023-03-17T05:33:10.510Z,99.99
2023-03-17T05:34:10.476Z,99.99
2023-03-17T05:35:10.449Z,99.99
2023-03-17T05:36:10.426Z,99.99
2023-03-17T05:37:10.404Z,99.99
2023-03-17T05:38:10.370Z,99.99
2023-03-17T05:39:10.350Z,99.99
2023-03-17T05:40:10.317Z,99.99
2023-03-17T05:41:10.297Z,99.99
2023-03-17T05:42:10.290Z,99.99
2023-03-17T05:43:10.254Z,99.99
2023-03-17T05:44:10.238Z,99.99
2023-03-17T05:45:10.189Z,99.99
2023-03-17T05:46:10.212Z,99.99
2023-03-17T05:47:10.141Z,99.99
2023-03-17T05:48:10.123Z,99.99
2023-03-17T05:49:10.103Z,99.99
2023-03-17T05:50:10.058Z,99.99
2023-03-17T05:51:10.046Z,99.99
2023-03-17T05:52:10.015Z,99.99
2023-03-17T05:53:09.997Z,99.99
2023-03-17T05:54:09.964Z,99.99
2023-03-17T05:55:09.940Z,99.99
2023-03-17T05:56:09.923Z,99.99
2023-03-17T05:57:09.898Z,99.99
2023-03-17T05:58:09.885Z,99.99
2023-03-17T05:59:09.865Z,99.99
2023-03-17T06:00:12.373Z,99.99
2023-03-17T06:01:09.795Z,99.99
2023-03-17T06:02:09.853Z,99.99
2023-03-17T06:03:09.753Z,99.99
2023-03-17T06:04:09.714Z,99.99
2023-03-17T06:05:09.710Z,99.99
2023-03-17T06:06:09.652Z,99.99
2023-03-17T06:07:09.636Z,99.99
2023-03-17T06:08:09.604Z,99.99
2023-03-17T06:09:09.582Z,99.99
2023-03-17T06:10:09.561Z,99.99
2023-03-17T06:11:09.541Z,99.99
2023-03-17T06:12:09.516Z,99.99
2023-03-17T06:13:09.487Z,99.99
2023-03-17T06:14:09.446Z,99.99
2023-03-17T06:15:09.432Z,99.99
2023-03-17T06:16:09.559Z,99.99
2023-03-17T06:17:09.375Z,99.99
2023-03-17T06:18:09.371Z,99.99
2023-03-17T06:19:09.339Z,99.99
2023-03-17T06:20:09.324Z,99.99
2023-03-17T06:21:09.287Z,99.99
2023-03-17T06:22:09.269Z,99.99
2023-03-17T06:23:09.226Z,99.99
2023-03-17T06:24:09.193Z,99.99
2023-03-17T06:25:09.172Z,99.99
2023-03-17T06:26:09.143Z,99.99
2023-03-17T06:27:09.216Z,99.99
2023-03-17T06:28:09.092Z,99.99
2023-03-17T06:29:09.085Z,99.99
2023-03-17T06:30:09.038Z,99.99
2023-03-17T06:31:09.083Z,99.99
2023-03-17T06:32:19.727Z,99.99
2023-03-17T06:33:09.226Z,99.99
2023-03-17T06:34:08.943Z,99.99
2023-03-17T06:35:08.912Z,99.99
2023-03-17T06:36:08.991Z,99.99
2023-03-17T06:37:08.862Z,99.99
2023-03-17T06:38:08.832Z,99.99
2023-03-17T06:39:08.811Z,99.99
2023-03-17T06:40:08.784Z,99.99
2023-03-17T06:41:08.760Z,99.99
2023-03-17T06:42:08.751Z,99.99
2023-03-17T06:43:08.712Z,99.99
2023-03-17T06:44:08.680Z,99.99
2023-03-17T06:45:08.660Z,99.99
2023-03-17T06:46:08.729Z,99.99
2023-03-17T06:47:08.614Z,99.99
2023-03-17T06:48:08.587Z,99.99
2023-03-17T06:49:08.555Z,99.99
2023-03-17T06:50:08.518Z,99.99
2023-03-17T06:51:08.503Z,99.99
2023-03-17T06:52:08.479Z,99.99
2023-03-17T06:53:08.472Z,99.99
2023-03-17T06:54:08.424Z,99.99
2023-03-17T06:55:08.407Z,99.99
2023-03-17T06:56:17.230Z,99.99
2023-03-17T06:57:08.348Z,99.99
2023-03-17T06:58:08.326Z,99.99
2023-03-17T06:59:08.297Z,99.99
2023-03-17T07:00:08.275Z,99.99
2023-03-17T07:01:08.253Z,99.99
2023-03-17T07:02:08.316Z,99.99
2023-03-17T07:03:08.213Z,99.99
2023-03-17T07:04:08.210Z,99.99
2023-03-17T07:05:08.151Z,99.99
2023-03-17T07:06:08.165Z,99.99
2023-03-17T07:07:08.102Z,99.99
2023-03-17T07:08:08.115Z,99.99
2023-03-17T07:09:08.058Z,99.99
2023-03-17T07:10:08.019Z,99.99
2023-03-17T07:11:08.011Z,99.99
2023-03-17T07:12:07.980Z,99.99
2023-03-17T07:13:08.044Z,99.99
2023-03-17T07:14:07.957Z,99.99
2023-03-17T07:15:07.904Z,99.99
2023-03-17T07:16:08.012Z,99.99
2023-03-17T07:17:07.873Z,99.99
2023-03-17T07:18:07.818Z,99.99
2023-03-17T07:19:07.821Z,99.99
2023-03-17T07:20:07.784Z,99.99
2023-03-17T07:21:07.750Z,99.99
2023-03-17T07:22:07.721Z,99.99
2023-03-17T07:23:07.705Z,99.99
2023-03-17T07:24:07.681Z,99.99
2023-03-17T07:25:07.698Z,99.99
2023-03-17T07:26:07.624Z,99.99
2023-03-17T07:27:07.615Z,99.99
2023-03-17T07:28:07.578Z,99.99
2023-03-17T07:29:07.551Z,99.99
2023-03-17T07:30:07.543Z,99.99
2023-03-17T07:31:07.524Z,99.99
2023-03-17T07:32:07.475Z,99.99
2023-03-17T07:33:07.486Z,99.99
2023-03-17T07:34:07.433Z,99.99
2023-03-17T07:35:07.439Z,99.99
2023-03-17T07:36:07.447Z,99.99
2023-03-17T07:37:07.379Z,99.99
2023-03-17T07:38:07.353Z,99.99
2023-03-17T07:39:08.067Z,99.99
2023-03-17T07:40:07.406Z,99.99
2023-03-17T07:41:07.254Z,99.99
2023-03-17T07:42:07.253Z,99.99
2023-03-17T07:43:07.202Z,99.99
2023-03-17T07:44:07.224Z,99.37
2023-03-17T07:45:07.158Z,98.85
2023-03-17T07:46:07.247Z,97.03
2023-03-17T07:47:07.114Z,96.61
2023-03-17T07:48:07.127Z,95.46
2023-03-17T07:49:07.091Z,94.93
2023-03-17T07:50:07.046Z,93.36
2023-03-17T07:51:07.046Z,93.31
2023-03-17T07:52:07.018Z,93.16
2023-03-17T07:53:06.969Z,94.55
2023-03-17T07:54:06.954Z,92.64
2023-03-17T07:55:06.925Z,91.01
2023-03-17T07:56:06.951Z,89.09
2023-03-17T07:57:06.911Z,88.52
2023-03-17T07:58:06.940Z,90.19
2023-03-17T07:59:06.864Z,88.32
2023-03-17T08:00:06.852Z,86.98
2023-03-17T08:01:06.823Z,86.31
2023-03-17T08:02:06.900Z,85.31
2023-03-17T08:03:10.798Z,87.61
2023-03-17T08:04:06.775Z,86.99
2023-03-17T08:05:06.704Z,87.51
2023-03-17T08:06:06.711Z,88.09
2023-03-17T08:07:06.665Z,87.27
2023-03-17T08:08:06.851Z,86.45
2023-03-17T08:09:06.635Z,85.86
2023-03-17T08:10:06.607Z,82.85
2023-03-17T08:11:06.572Z,82.85
2023-03-17T08:12:06.570Z,82.75
2023-03-17T08:13:06.542Z,81.85
2023-03-17T08:14:06.529Z,83.23
2023-03-17T08:15:06.494Z,82.46
2023-03-17T08:16:06.639Z,82.12
2023-03-17T08:17:06.589Z,81.74
2023-03-17T08:18:06.444Z,81.54
2023-03-17T08:19:06.411Z,81.84
2023-03-17T08:20:06.414Z,80.20
2023-03-17T08:21:06.383Z,81.07
2023-03-17T08:22:06.361Z,81.84
2023-03-17T08:23:06.410Z,80.87
2023-03-17T08:24:06.367Z,80.91
2023-03-17T08:25:06.372Z,80.19
2023-03-17T08:26:06.287Z,79.42
2023-03-17T08:27:06.271Z,79.22
2023-03-17T08:28:06.253Z,79.46
2023-03-17T08:29:06.283Z,77.15
2023-03-17T08:30:06.259Z,77.25
2023-03-17T08:31:06.352Z,78.55
2023-03-17T08:32:06.185Z,78.27
2023-03-17T08:33:06.249Z,80.71
2023-03-17T08:34:06.132Z,78.02
2023-03-17T08:35:06.379Z,77.38
2023-03-17T08:36:06.117Z,76.71
2023-03-17T08:37:06.110Z,76.71
2023-03-17T08:38:06.066Z,76.23
2023-03-17T08:39:06.041Z,76.32
2023-03-17T08:40:06.063Z,76.09
2023-03-17T08:41:06.015Z,76.79
2023-03-17T08:42:06.002Z,78.70
2023-03-17T08:43:05.982Z,79.86
2023-03-17T08:44:05.974Z,78.90
2023-03-17T08:45:05.938Z,79.38
2023-03-17T08:46:05.983Z,79.71
2023-03-17T08:47:05.902Z,77.88
2023-03-17T08:48:05.899Z,77.31
2023-03-17T08:49:05.882Z,78.94
2023-03-17T08:50:05.861Z,78.69
2023-03-17T08:51:05.836Z,77.76
2023-03-17T08:52:05.828Z,75.77
2023-03-17T08:53:05.804Z,76.25
2023-03-17T08:54:05.800Z,77.15
2023-03-17T08:55:05.777Z,78.21
2023-03-17T08:56:05.762Z,76.19
2023-03-17T08:57:05.745Z,77.29
2023-03-17T08:58:05.733Z,76.39
2023-03-17T08:59:05.708Z,76.69
2023-03-17T09:00:05.693Z,79.80
2023-03-17T09:01:05.714Z,77.88
2023-03-17T09:02:05.679Z,77.31
2023-03-17T09:03:05.640Z,79.69
2023-03-17T09:04:05.655Z,76.57
2023-03-17T09:05:05.606Z,77.00
2023-03-17T09:06:05.601Z,76.42
2023-03-17T09:07:07.673Z,75.27
2023-03-17T09:08:05.689Z,75.46
2023-03-17T09:09:05.542Z,75.88
2023-03-17T09:10:05.541Z,75.56
2023-03-17T09:11:05.528Z,75.79
2023-03-17T09:12:05.510Z,74.92
2023-03-17T09:13:05.522Z,74.48
2023-03-17T09:14:05.491Z,73.03
2023-03-17T09:15:05.539Z,71.95
2023-03-17T09:16:05.542Z,72.18
2023-03-17T09:17:06.049Z,71.44
2023-03-17T09:18:05.421Z,71.12
2023-03-17T09:19:05.396Z,69.89
2023-03-17T09:20:05.416Z,71.34
2023-03-17T09:21:05.679Z,76.01
2023-03-17T09:22:05.343Z,79.84
2023-03-17T09:23:05.326Z,82.74
2023-03-17T09:24:05.317Z,85.10
2023-03-17T09:25:05.300Z,86.88
2023-03-17T09:26:05.368Z,87.64
2023-03-17T09:27:05.294Z,85.38
2023-03-17T09:28:05.294Z,85.81
2023-03-17T09:29:05.235Z,86.05
2023-03-17T09:30:05.222Z,83.54
2023-03-17T09:31:05.337Z,81.05
2023-03-17T09:32:05.207Z,81.67
2023-03-17T09:33:05.249Z,81.28
2023-03-17T09:34:05.172Z,83.26
2023-03-17T09:35:05.138Z,86.48
2023-03-17T09:36:05.203Z,87.07
2023-03-17T09:37:05.262Z,88.46
2023-03-17T09:38:05.103Z,90.76
2023-03-17T09:39:05.103Z,89.61
2023-03-17T09:40:05.074Z,91.63
2023-03-17T09:41:05.072Z,90.57
2023-03-17T09:42:05.031Z,90.23
2023-03-17T09:43:05.026Z,91.19
2023-03-17T09:44:05.037Z,93.59
2023-03-17T09:45:05.027Z,94.45
2023-03-17T09:46:05.002Z,95.98
2023-03-17T09:47:04.960Z,96.27
2023-03-17T09:48:04.960Z,95.60
2023-03-17T09:49:04.929Z,93.69
2023-03-17T09:50:04.909Z,92.87
2023-03-17T09:51:05.001Z,91.49
2023-03-17T09:52:04.893Z,92.01
2023-03-17T09:53:04.880Z,93.11
2023-03-17T09:54:04.831Z,93.30
2023-03-17T09:55:04.890Z,92.78
2023-03-17T09:56:04.798Z,92.97
2023-03-17T09:57:04.781Z,93.49
2023-03-17T09:58:04.773Z,93.16
2023-03-17T09:59:04.761Z,93.54
2023-03-17T10:00:04.773Z,94.02
2023-03-17T10:01:04.752Z,94.50
2023-03-17T10:02:04.818Z,96.13
2023-03-17T10:03:04.678Z,96.18
2023-03-17T10:04:04.671Z,96.37
2023-03-17T10:05:04.665Z,95.70
2023-03-17T10:06:04.640Z,95.03
2023-03-17T10:07:04.675Z,94.26
2023-03-17T10:08:05.437Z,93.30
2023-03-17T10:09:04.580Z,92.87
2023-03-17T10:10:04.601Z,92.91
2023-03-17T10:11:04.541Z,91.72
2023-03-17T10:12:04.546Z,91.47
2023-03-17T10:13:04.523Z,89.50
2023-03-17T10:14:04.533Z,90.03
2023-03-17T10:15:04.488Z,89.46
2023-03-17T10:16:04.533Z,88.69
2023-03-17T10:17:04.462Z,89.36
2023-03-17T10:18:04.434Z,88.02
2023-03-17T10:19:04.414Z,87.92
2023-03-17T10:20:04.446Z,88.02
2023-03-17T10:21:04.374Z,89.46
2023-03-17T10:22:04.369Z,89.26
2023-03-17T10:23:04.345Z,90.61
2023-03-17T10:24:04.339Z,91.61
2023-03-17T10:25:04.395Z,89.69
2023-03-17T10:26:04.312Z,88.02
2023-03-17T10:27:04.287Z,88.11
2023-03-17T10:28:05.913Z,88.16
2023-03-17T10:29:04.320Z,87.01
2023-03-17T10:30:04.259Z,87.54
2023-03-17T10:31:04.544Z,87.73
2023-03-17T10:32:04.501Z,88.49
2023-03-17T10:33:04.240Z,88.49
2023-03-17T10:34:04.191Z,88.17
2023-03-17T10:35:04.169Z,89.61
2023-03-17T10:36:04.212Z,89.41
2023-03-17T10:37:04.164Z,90.56
2023-03-17T10:38:14.061Z,89.41
2023-03-17T10:39:04.108Z,88.88
2023-03-17T10:40:04.107Z,90.13
2023-03-17T10:41:04.092Z,90.61
2023-03-17T10:42:04.078Z,90.32
2023-03-17T10:43:04.064Z,90.90
2023-03-17T10:44:04.049Z,89.75
2023-03-17T10:45:04.031Z,89.75
2023-03-17T10:46:04.244Z,90.84
2023-03-17T10:47:04.075Z,89.89
2023-03-17T10:48:03.998Z,89.69
2023-03-17T10:49:03.976Z,89.40
2023-03-17T10:50:03.968Z,89.22
2023-03-17T10:51:03.952Z,89.50
2023-03-17T10:52:03.947Z,88.06
2023-03-17T10:53:03.926Z,87.87
2023-03-17T10:54:03.948Z,87.62
2023-03-17T10:55:03.902Z,87.34
2023-03-17T10:56:03.888Z,85.89
2023-03-17T10:57:03.865Z,87.62
2023-03-17T10:58:03.873Z,86.76
2023-03-17T10:59:03.840Z,84.59
2023-03-17T11:00:03.833Z,84.21
2023-03-17T11:01:03.859Z,87.04
2023-03-17T11:02:03.819Z,86.27
2023-03-17T11:03:03.798Z,86.56
2023-03-17T11:04:03.913Z,86.27
2023-03-17T11:05:03.793Z,85.88
2023-03-17T11:06:03.761Z,83.96
2023-03-17T11:07:03.764Z,85.60
2023-03-17T11:08:03.749Z,85.60
2023-03-17T11:09:03.722Z,84.54
2023-03-17T11:10:03.722Z,84.63
2023-03-17T11:11:03.702Z,84.73
2023-03-17T11:12:03.701Z,85.40
2023-03-17T11:13:03.678Z,83.73
2023-03-17T11:14:03.672Z,83.78
2023-03-17T11:15:03.680Z,85.22
2023-03-17T11:16:03.693Z,85.75
2023-03-17T11:17:03.642Z,85.95
2023-03-17T11:18:03.631Z,86.95
2023-03-17T11:19:03.611Z,87.24
2023-03-17T11:20:03.602Z,86.18
2023-03-17T11:21:03.611Z,87.53
2023-03-17T11:22:03.573Z,87.29
2023-03-17T11:23:03.581Z,87.38
2023-03-17T11:24:03.563Z,86.13
2023-03-17T11:25:03.594Z,86.47
2023-03-17T11:26:03.535Z,86.76
2023-03-17T11:27:03.581Z,88.30
2023-03-17T11:28:03.511Z,88.30
2023-03-17T11:29:03.484Z,89.40
2023-03-17T11:30:03.478Z,92.00
2023-03-17T11:31:03.460Z,92.67
2023-03-17T11:32:03.494Z,92.38
2023-03-17T11:33:03.522Z,92.57
2023-03-17T11:34:03.427Z,93.39
2023-03-17T11:35:03.416Z,92.33
2023-03-17T11:36:03.523Z,91.28
2023-03-17T11:37:03.394Z,91.37
2023-03-17T11:38:03.368Z,90.12
2023-03-17T11:39:03.378Z,91.22
2023-03-17T11:40:03.353Z,90.99
2023-03-17T11:41:03.349Z,92.52
2023-03-17T11:42:03.329Z,91.80
2023-03-17T11:43:03.305Z,91.99
2023-03-17T11:44:03.307Z,90.36
2023-03-17T11:45:03.281Z,90.26
2023-03-17T11:46:03.275Z,90.17
2023-03-17T11:47:03.261Z,89.78
2023-03-17T11:48:03.279Z,89.54
2023-03-17T11:49:03.239Z,91.18
2023-03-17T11:50:03.230Z,91.61
2023-03-17T11:51:03.209Z,92.05
2023-03-17T11:52:03.200Z,90.99
2023-03-17T11:53:03.240Z,92.29
2023-03-17T11:54:03.177Z,91.03
2023-03-17T11:55:03.170Z,93.05
2023-03-17T11:56:03.152Z,91.22
2023-03-17T11:57:03.139Z,90.41
2023-03-17T11:58:03.113Z,92.04
2023-03-17T11:59:03.109Z,89.64
2023-03-17T12:00:03.097Z,89.10
2023-03-17T12:01:03.086Z,90.88
2023-03-17T12:02:03.073Z,91.07
2023-03-17T12:03:03.108Z,89.77
2023-03-17T12:04:03.205Z,88.13
2023-03-17T12:05:03.042Z,86.98
2023-03-17T12:06:03.032Z,87.74
2023-03-17T12:07:03.013Z,85.87
2023-03-17T12:08:03.010Z,85.39
2023-03-17T12:09:02.993Z,88.32
2023-03-17T12:10:02.986Z,89.00
2023-03-17T12:11:02.988Z,86.93
2023-03-17T12:12:02.968Z,86.40
2023-03-17T12:13:02.949Z,85.34
2023-03-17T12:14:02.938Z,85.91
2023-03-17T12:15:02.962Z,85.14
2023-03-17T12:16:02.980Z,84.62
2023-03-17T12:17:02.937Z,87.03
2023-03-17T12:18:02.902Z,88.62
2023-03-17T12:19:02.889Z,89.64
2023-03-17T12:20:02.884Z,89.11
2023-03-17T12:21:02.875Z,89.21
2023-03-17T12:22:02.857Z,89.98
2023-03-17T12:23:02.908Z,89.74
2023-03-17T12:24:02.842Z,89.79
2023-03-17T12:25:02.835Z,90.90
2023-03-17T12:26:02.833Z,93.25
2023-03-17T12:27:02.810Z,93.15
2023-03-17T12:28:02.792Z,93.29
2023-03-17T12:29:02.783Z,93.34
2023-03-17T12:30:02.810Z,94.11
2023-03-17T12:31:02.813Z,94.01
2023-03-17T12:32:02.753Z,93.68
2023-03-17T12:33:02.833Z,93.24
2023-03-17T12:34:02.721Z,93.34
2023-03-17T12:35:02.708Z,93.24
2023-03-17T12:36:02.737Z,92.67
2023-03-17T12:37:02.692Z,91.80
2023-03-17T12:38:02.675Z,92.09
2023-03-17T12:39:02.661Z,92.09
2023-03-17T12:40:02.654Z,93.01
2023-03-17T12:41:02.636Z,94.45
2023-03-17T12:42:02.616Z,93.01
2023-03-17T12:43:02.653Z,92.77
2023-03-17T12:44:02.608Z,92.57
2023-03-17T12:45:02.608Z,92.86
2023-03-17T12:46:02.626Z,93.15
2023-03-17T12:47:02.563Z,95.21
2023-03-17T12:48:02.567Z,94.35
2023-03-17T12:49:02.558Z,94.16
2023-03-17T12:50:02.539Z,94.31
2023-03-17T12:51:02.511Z,94.78
2023-03-17T12:52:02.508Z,94.98